createdAt,value
2018-05-17T00:00:47.965Z,1013.69
2018-05-17T00:01:47.939Z,1013.65
2018-05-17T00:02:47.914Z,1013.70
2018-05-17T00:03:47.898Z,1013.65
2018-05-17T00:04:47.862Z,1013.66
2018-05-17T00:05:47.836Z,1013.69
2018-05-17T00:06:47.811Z,1013.66
2018-05-17T00:07:47.785Z,1013.69
2018-05-17T00:08:47.759Z,1013.67
2018-05-17T00:09:47.734Z,1013.68
2018-05-17T00:10:47.709Z,1013.67
2018-05-17T00:11:47.686Z,1013.61
2018-05-17T00:12:47.658Z,1013.62
2018-05-17T00:13:47.632Z,1013.72
2018-05-17T00:14:47.612Z,1013.68
2018-05-17T00:15:47.580Z,1013.73
2018-05-17T00:16:47.557Z,1013.62
2018-05-17T00:17:47.529Z,1013.74
2018-05-17T00:18:47.503Z,1013.75
2018-05-17T00:19:47.487Z,1013.70
2018-05-17T00:20:47.452Z,1013.62
2018-05-17T00:21:47.433Z,1013.65
2018-05-17T00:22:47.401Z,1013.71
2018-05-17T00:23:47.379Z,1013.67
2018-05-17T00:24:47.349Z,1013.70
2018-05-17T00:25:47.328Z,1013.74
2018-05-17T00:26:47.303Z,1013.69
2018-05-17T00:27:47.272Z,1013.67
2018-05-17T00:28:47.246Z,1013.66
2018-05-17T00:29:47.222Z,1013.62
2018-05-17T00:30:47.199Z,1013.74
2018-05-17T00:31:47.169Z,1013.69
2018-05-17T00:32:47.143Z,1013.71
2018-05-17T00:33:47.119Z,1013.70
2018-05-17T00:34:47.101Z,1013.68
2018-05-17T00:35:47.164Z,1013.71
2018-05-17T00:36:47.042Z,1013.68
2018-05-17T00:37:47.016Z,1013.66
2018-05-17T00:38:46.989Z,1013.70
2018-05-17T00:39:46.965Z,1013.71
2018-05-17T00:40:46.939Z,1013.74
2018-05-17T00:41:46.912Z,1013.63
2018-05-17T00:42:46.887Z,1013.64
2018-05-17T00:43:46.860Z,1013.67
2018-05-17T00:44:46.837Z,1013.65
2018-05-17T00:45:46.811Z,1013.70
2018-05-17T00:46:46.783Z,1013.72
2018-05-17T00:47:46.757Z,1013.72
2018-05-17T00:48:46.732Z,1013.69
2018-05-17T00:49:46.706Z,1013.69
2018-05-17T00:50:46.680Z,1013.64
2018-05-17T00:51:46.654Z,1013.71
2018-05-17T00:52:46.628Z,1013.59
2018-05-17T00:53:46.604Z,1013.65
2018-05-17T00:54:46.580Z,1013.70
2018-05-17T00:55:46.551Z,1013.63
2018-05-17T00:56:46.534Z,1013.59
2018-05-17T00:57:46.502Z,1013.58
2018-05-17T00:58:46.474Z,1013.64
2018-05-17T00:59:46.448Z,1013.54
2018-05-17T01:00:46.423Z,1013.61
2018-05-17T01:01:46.397Z,1013.61
2018-05-17T01:02:46.371Z,1013.56
2018-05-17T01:03:46.345Z,1013.59
2018-05-17T01:04:46.320Z,1013.61
2018-05-17T01:05:46.297Z,1013.52
2018-05-17T01:06:46.276Z,1013.57
2018-05-17T01:07:46.241Z,1013.62
2018-05-17T01:08:46.216Z,1013.53
2018-05-17T01:09:46.196Z,1013.59
2018-05-17T01:10:46.164Z,1013.66
2018-05-17T01:11:46.144Z,1013.73
2018-05-17T01:12:46.113Z,1013.63
2018-05-17T01:13:46.087Z,1013.79
2018-05-17T01:14:46.067Z,1013.66
2018-05-17T01:15:46.035Z,1013.71
2018-05-17T01:16:46.013Z,1013.75
2018-05-17T01:17:45.984Z,1013.76
2018-05-17T01:18:45.958Z,1013.69
2018-05-17T01:19:45.931Z,1013.79
2018-05-17T01:20:45.913Z,1013.59
2018-05-17T01:21:45.880Z,1013.65
2018-05-17T01:22:45.858Z,1013.61
2018-05-17T01:23:45.830Z,1013.66
2018-05-17T01:24:45.853Z,1013.69
2018-05-17T01:25:45.777Z,1013.71
2018-05-17T01:26:45.751Z,1013.72
2018-05-17T01:27:45.729Z,1013.65
2018-05-17T01:28:45.699Z,1013.65
2018-05-17T01:29:45.674Z,1013.81
2018-05-17T01:30:45.648Z,1013.76
2018-05-17T01:31:45.621Z,1013.76
2018-05-17T01:32:45.600Z,1013.77
2018-05-17T01:33:45.573Z,1013.78
2018-05-17T01:34:45.548Z,1013.92
2018-05-17T01:35:45.518Z,1013.81
2018-05-17T01:36:45.492Z,1013.70
2018-05-17T01:37:45.467Z,1013.78
2018-05-17T01:38:45.441Z,1013.55
2018-05-17T01:39:45.414Z,1013.81
2018-05-17T01:40:45.390Z,1013.70
2018-05-17T01:41:45.413Z,1013.66
2018-05-17T01:42:45.351Z,1013.73
2018-05-17T01:43:45.311Z,1013.56
2018-05-17T01:44:45.285Z,1013.71
2018-05-17T01:45:45.267Z,1013.65
2018-05-17T01:46:45.238Z,1013.82
2018-05-17T01:47:45.208Z,1013.67
2018-05-17T01:48:45.182Z,1013.82
2018-05-17T01:49:45.156Z,1013.63
2018-05-17T01:50:45.137Z,1013.72
2018-05-17T01:51:45.104Z,1013.68
2018-05-17T01:52:45.078Z,1013.70
2018-05-17T01:53:45.054Z,1013.71
2018-05-17T01:54:45.034Z,1013.76
2018-05-17T01:55:45.001Z,1013.51
2018-05-17T01:56:44.980Z,1013.67
2018-05-17T01:57:44.947Z,1013.73
2018-05-17T01:58:44.922Z,1013.77
2018-05-17T01:59:44.895Z,1013.74
2018-05-17T02:00:44.870Z,1013.77
2018-05-17T02:01:44.844Z,1013.73
2018-05-17T02:02:44.820Z,1013.74
2018-05-17T02:03:44.791Z,1013.84
2018-05-17T02:04:44.766Z,1013.80
2018-05-17T02:05:44.739Z,1013.79
2018-05-17T02:06:44.714Z,1013.75
2018-05-17T02:07:44.687Z,1013.71
2018-05-17T02:08:44.661Z,1013.90
2018-05-17T02:09:44.639Z,1013.74
2018-05-17T02:10:44.611Z,1013.78
2018-05-17T02:11:44.583Z,1013.81
2018-05-17T02:12:44.557Z,1013.87
2018-05-17T02:13:44.533Z,1013.78
2018-05-17T02:14:44.505Z,1013.73
2018-05-17T02:15:44.479Z,1013.75
2018-05-17T02:16:44.455Z,1013.64
2018-05-17T02:17:44.431Z,1013.76
2018-05-17T02:18:44.401Z,1013.77
2018-05-17T02:19:44.374Z,1013.73
2018-05-17T02:20:44.349Z,1013.82
2018-05-17T02:21:44.327Z,1013.69
2018-05-17T02:22:44.296Z,1013.76
2018-05-17T02:23:44.270Z,1013.73
2018-05-17T02:24:44.244Z,1013.78
2018-05-17T02:25:44.218Z,1013.73
2018-05-17T02:26:44.192Z,1013.67
2018-05-17T02:27:44.166Z,1013.72
2018-05-17T02:28:44.141Z,1013.85
2018-05-17T02:29:44.114Z,1013.69
2018-05-17T02:30:44.089Z,1013.65
2018-05-17T02:31:44.063Z,1013.64
2018-05-17T02:32:44.036Z,1013.75
2018-05-17T02:33:44.013Z,1013.70
2018-05-17T02:34:43.985Z,1013.73
2018-05-17T02:35:43.957Z,1013.43
2018-05-17T02:36:43.932Z,1013.72
2018-05-17T02:37:43.906Z,1013.68
2018-05-17T02:38:43.879Z,1013.70
2018-05-17T02:39:43.853Z,1013.65
2018-05-17T02:40:43.828Z,1013.70
2018-05-17T02:41:43.805Z,1013.64
2018-05-17T02:42:43.782Z,1013.71
2018-05-17T02:43:43.748Z,1013.71
2018-05-17T02:44:43.725Z,1013.48
2018-05-17T02:45:43.697Z,1013.67
2018-05-17T02:46:43.676Z,1013.71
2018-05-17T02:47:43.645Z,1013.70
2018-05-17T02:48:43.624Z,1013.76
2018-05-17T02:49:43.594Z,1013.68
2018-05-17T02:50:43.567Z,1013.71
2018-05-17T02:51:43.590Z,1013.73
2018-05-17T02:52:43.515Z,1013.74
2018-05-17T02:53:43.490Z,1013.72
2018-05-17T02:54:43.462Z,1013.69
2018-05-17T02:55:43.436Z,1013.63
2018-05-17T02:56:43.413Z,1013.65
2018-05-17T02:57:43.385Z,1013.63
2018-05-17T02:58:43.360Z,1013.49
2018-05-17T02:59:43.331Z,1013.59
2018-05-17T03:00:43.305Z,1013.64
2018-05-17T03:01:43.280Z,1013.58
2018-05-17T03:02:43.256Z,1013.48
2018-05-17T03:03:43.228Z,1013.55
2018-05-17T03:04:43.201Z,1013.38
2018-05-17T03:05:43.176Z,1013.46
2018-05-17T03:06:43.149Z,1013.48
2018-05-17T03:07:43.125Z,1013.60
2018-05-17T03:08:43.098Z,1013.50
2018-05-17T03:09:43.071Z,1013.57
2018-05-17T03:10:43.046Z,1013.53
2018-05-17T03:11:43.018Z,1013.60
2018-05-17T03:12:42.992Z,1013.62
2018-05-17T03:13:42.966Z,1013.67
2018-05-17T03:14:42.949Z,1013.51
2018-05-17T03:15:42.915Z,1013.58
2018-05-17T03:16:42.887Z,1013.62
2018-05-17T03:17:42.862Z,1013.61
2018-05-17T03:18:42.837Z,1013.55
2018-05-17T03:19:42.810Z,1013.59
2018-05-17T03:20:42.784Z,1013.60
2018-05-17T03:21:42.766Z,1013.64
2018-05-17T03:22:42.732Z,1013.65
2018-05-17T03:23:42.705Z,1013.64
2018-05-17T03:24:42.680Z,1013.47
2018-05-17T03:25:42.718Z,1013.60
2018-05-17T03:26:42.630Z,1013.52
2018-05-17T03:27:42.604Z,1013.55
2018-05-17T03:28:42.578Z,1013.54
2018-05-17T03:29:42.549Z,1013.54
2018-05-17T03:30:42.525Z,1013.50
2018-05-17T03:31:42.497Z,1013.51
2018-05-17T03:32:42.476Z,1013.59
2018-05-17T03:33:42.446Z,1013.58
2018-05-17T03:34:42.420Z,1013.49
2018-05-17T03:35:42.393Z,1013.54
2018-05-17T03:36:42.370Z,1013.51
2018-05-17T03:37:42.341Z,1013.43
2018-05-17T03:38:42.316Z,1013.54
2018-05-17T03:39:42.289Z,1013.55
2018-05-17T03:40:42.264Z,1013.53
2018-05-17T03:41:42.241Z,1013.62
2018-05-17T03:42:42.258Z,1013.62
2018-05-17T03:43:42.185Z,1013.59
2018-05-17T03:44:42.159Z,1013.66
2018-05-17T03:45:42.134Z,1013.63
2018-05-17T03:46:42.107Z,1013.64
2018-05-17T03:47:42.080Z,1013.61
2018-05-17T03:48:42.065Z,1013.54
2018-05-17T03:49:42.031Z,1013.76
2018-05-17T03:50:42.003Z,1013.61
2018-05-17T03:51:41.976Z,1013.69
2018-05-17T03:52:41.951Z,1013.66
2018-05-17T03:53:41.926Z,1013.58
2018-05-17T03:54:41.899Z,1013.67
2018-05-17T03:55:41.872Z,1013.66
2018-05-17T03:56:41.852Z,1013.64
2018-05-17T03:57:41.821Z,1013.62
2018-05-17T03:58:41.795Z,1013.64
2018-05-17T03:59:41.767Z,1013.63
2018-05-17T04:00:41.742Z,1013.62
2018-05-17T04:01:41.717Z,1013.63
2018-05-17T04:02:41.696Z,1013.68
2018-05-17T04:03:41.664Z,1013.66
2018-05-17T04:04:41.643Z,1013.58
2018-05-17T04:05:41.612Z,1013.64
2018-05-17T04:06:41.586Z,1013.65
2018-05-17T04:07:41.559Z,1013.58
2018-05-17T04:08:41.628Z,1013.66
2018-05-17T04:09:41.508Z,1013.72
2018-05-17T04:10:41.482Z,1013.64
2018-05-17T04:11:41.456Z,1013.74
2018-05-17T04:12:41.429Z,1013.75
2018-05-17T04:13:41.404Z,1013.74
2018-05-17T04:14:41.380Z,1013.65
2018-05-17T04:15:41.352Z,1013.72
2018-05-17T04:16:41.325Z,1013.69
2018-05-17T04:17:41.302Z,1013.70
2018-05-17T04:18:41.274Z,1013.68
2018-05-17T04:19:41.249Z,1013.72
2018-05-17T04:20:41.222Z,1013.70
2018-05-17T04:21:41.196Z,1013.71
2018-05-17T04:22:41.174Z,1013.82
2018-05-17T04:23:41.144Z,1013.53
2018-05-17T04:24:41.118Z,1013.83
2018-05-17T04:25:41.094Z,1013.80
2018-05-17T04:26:41.067Z,1013.71
2018-05-17T04:27:41.040Z,1013.80
2018-05-17T04:28:41.019Z,1013.77
2018-05-17T04:29:40.994Z,1013.69
2018-05-17T04:30:40.963Z,1013.91
2018-05-17T04:31:40.939Z,1013.85
2018-05-17T04:32:40.911Z,1013.87
2018-05-17T04:33:40.885Z,1013.69
2018-05-17T04:34:40.860Z,1013.73
2018-05-17T04:35:40.832Z,1013.80
2018-05-17T04:36:40.807Z,1013.76
2018-05-17T04:37:40.787Z,1013.85
2018-05-17T04:38:40.760Z,1013.89
2018-05-17T04:39:40.729Z,1013.86
2018-05-17T04:40:40.710Z,1013.96
2018-05-17T04:41:40.678Z,1013.91
2018-05-17T04:42:40.662Z,1013.91
2018-05-17T04:43:40.629Z,1013.90
2018-05-17T04:44:40.604Z,1013.91
2018-05-17T04:45:40.576Z,1014.02
2018-05-17T04:46:40.553Z,1013.90
2018-05-17T04:47:40.523Z,1014.19
2018-05-17T04:48:40.502Z,1013.96
2018-05-17T04:49:40.473Z,1014.01
2018-05-17T04:50:40.449Z,1014.02
2018-05-17T04:51:40.422Z,1013.97
2018-05-17T04:52:40.396Z,1014.04
2018-05-17T04:53:40.374Z,1014.14
2018-05-17T04:54:40.429Z,1014.02
2018-05-17T04:55:40.321Z,1013.97
2018-05-17T04:56:40.296Z,1013.93
2018-05-17T04:57:40.271Z,1013.96
2018-05-17T04:58:40.246Z,1013.92
2018-05-17T04:59:40.222Z,1014.06
2018-05-17T05:00:40.948Z,1013.80
2018-05-17T05:01:40.176Z,1013.87
2018-05-17T05:02:40.219Z,1014.00
2018-05-17T05:03:40.125Z,1014.07
2018-05-17T05:04:40.095Z,1013.98
2018-05-17T05:05:40.071Z,1013.99
2018-05-17T05:06:40.050Z,1013.86
2018-05-17T05:07:40.023Z,1013.91
2018-05-17T05:08:39.999Z,1013.99
2018-05-17T05:09:39.971Z,1014.01
2018-05-17T05:10:39.956Z,1014.00
2018-05-17T05:11:39.924Z,1013.94
2018-05-17T05:12:39.897Z,1014.05
2018-05-17T05:13:39.873Z,1014.07
2018-05-17T05:14:39.855Z,1014.09
2018-05-17T05:15:39.833Z,1014.71
2018-05-17T05:16:39.799Z,1014.13
2018-05-17T05:17:39.774Z,1014.08
2018-05-17T05:18:39.750Z,1013.97
2018-05-17T05:19:39.727Z,1014.13
2018-05-17T05:20:39.701Z,1014.15
2018-05-17T05:21:39.682Z,1014.25
2018-05-17T05:22:39.659Z,1014.22
2018-05-17T05:23:39.631Z,1014.09
2018-05-17T05:24:39.604Z,1014.19
2018-05-17T05:25:39.580Z,1014.53
2018-05-17T05:26:39.557Z,1014.18
2018-05-17T05:27:39.531Z,1014.20
2018-05-17T05:28:39.508Z,1014.45
2018-05-17T05:29:39.488Z,1014.43
2018-05-17T05:30:39.460Z,1014.38
2018-05-17T05:31:39.450Z,1014.34
2018-05-17T05:32:39.412Z,1014.36
2018-05-17T05:33:39.389Z,1014.31
2018-05-17T05:34:39.369Z,1014.20
2018-05-17T05:35:39.341Z,1014.24
2018-05-17T05:36:39.318Z,1014.30
2018-05-17T05:37:39.325Z,1014.36
2018-05-17T05:38:39.276Z,1014.25
2018-05-17T05:39:39.248Z,1014.22
2018-05-17T05:40:39.225Z,1014.38
2018-05-17T05:41:39.212Z,1014.36
2018-05-17T05:42:39.179Z,1014.59
2018-05-17T05:43:39.155Z,1014.40
2018-05-17T05:44:39.136Z,1014.43
2018-05-17T05:45:39.114Z,1014.29
2018-05-17T05:46:39.093Z,1014.35
2018-05-17T05:47:39.062Z,1014.29
2018-05-17T05:48:39.042Z,1014.32
2018-05-17T05:49:39.050Z,1014.55
2018-05-17T05:50:38.992Z,1014.40
2018-05-17T05:51:38.968Z,1014.33
2018-05-17T05:52:38.944Z,1014.28
2018-05-17T05:53:38.923Z,1014.57
2018-05-17T05:54:38.899Z,1014.34
2018-05-17T05:55:38.874Z,1014.44
2018-05-17T05:56:38.851Z,1014.45
2018-05-17T05:57:38.841Z,1014.35
2018-05-17T05:58:38.805Z,1014.33
2018-05-17T05:59:38.781Z,1014.49
2018-05-17T06:00:38.763Z,1014.42
2018-05-17T06:01:38.741Z,1014.58
2018-05-17T06:02:38.726Z,1014.40
2018-05-17T06:03:38.687Z,1014.32
2018-05-17T06:04:38.665Z,1014.41
2018-05-17T06:05:38.643Z,1015.14
2018-05-17T06:06:38.618Z,1014.44
2018-05-17T06:07:38.597Z,1014.46
2018-05-17T06:08:38.572Z,1014.48
2018-05-17T06:09:38.548Z,1014.50
2018-05-17T06:10:38.525Z,1014.53
2018-05-17T06:11:38.501Z,1014.64
2018-05-17T06:12:38.479Z,1014.41
2018-05-17T06:13:38.455Z,1014.47
2018-05-17T06:14:38.433Z,1014.80
2018-05-17T06:15:38.413Z,1015.39
2018-05-17T06:16:38.389Z,1015.19
2018-05-17T06:17:38.363Z,1014.54
2018-05-17T06:18:38.340Z,1014.63
2018-05-17T06:19:38.317Z,1014.72
2018-05-17T06:20:38.296Z,1014.81
2018-05-17T06:21:38.272Z,1014.56
2018-05-17T06:22:38.249Z,1015.46
2018-05-17T06:23:38.225Z,1014.72
2018-05-17T06:24:38.207Z,1015.17
2018-05-17T06:25:38.180Z,1014.48
2018-05-17T06:26:38.158Z,1014.97
2018-05-17T06:27:38.138Z,1014.52
2018-05-17T06:28:38.118Z,1014.50
2018-05-17T06:29:38.090Z,1014.71
2018-05-17T06:30:38.067Z,1014.49
2018-05-17T06:31:38.044Z,1014.52
2018-05-17T06:32:38.024Z,1014.38
2018-05-17T06:33:38.020Z,1014.55
2018-05-17T06:34:37.977Z,1014.56
2018-05-17T06:35:37.955Z,1014.66
2018-05-17T06:36:37.932Z,1014.51
2018-05-17T06:37:37.913Z,1014.52
2018-05-17T06:38:37.886Z,1014.52
2018-05-17T06:39:37.864Z,1014.60
2018-05-17T06:40:37.845Z,1014.45
2018-05-17T06:41:37.818Z,1014.81
2018-05-17T06:42:37.796Z,1014.52
2018-05-17T06:43:37.773Z,1015.03
2018-05-17T06:44:37.755Z,1014.69
2018-05-17T06:45:37.732Z,1014.59
2018-05-17T06:46:37.710Z,1014.54
2018-05-17T06:47:37.684Z,1015.26
2018-05-17T06:48:37.661Z,1016.14
2018-05-17T06:49:37.640Z,1014.79
2018-05-17T06:50:37.617Z,1016.11
2018-05-17T06:51:37.602Z,1016.25
2018-05-17T06:52:37.575Z,1015.22
2018-05-17T06:53:37.557Z,1015.87
2018-05-17T06:54:37.532Z,1015.07
2018-05-17T06:55:37.509Z,1014.93
2018-05-17T06:56:37.488Z,1014.84
2018-05-17T06:57:37.477Z,1014.75
2018-05-17T06:58:37.446Z,1014.72
2018-05-17T06:59:37.426Z,1014.67
2018-05-17T07:00:37.446Z,1014.68
2018-05-17T07:01:37.383Z,1014.65
2018-05-17T07:02:37.362Z,1014.71
2018-05-17T07:03:37.341Z,1014.72
2018-05-17T07:04:37.320Z,1014.87
2018-05-17T07:05:37.299Z,1014.69
2018-05-17T07:06:37.278Z,1014.74
2018-05-17T07:07:37.257Z,1014.82
2018-05-17T07:08:37.250Z,1014.69
2018-05-17T07:09:37.214Z,1014.60
2018-05-17T07:10:37.195Z,1014.63
2018-05-17T07:11:37.171Z,1014.86
2018-05-17T07:12:37.151Z,1014.80
2018-05-17T07:13:37.137Z,1014.78
2018-05-17T07:14:37.109Z,1015.14
2018-05-17T07:15:37.088Z,1014.80
2018-05-17T07:16:37.066Z,1015.11
2018-05-17T07:17:37.059Z,1015.16
2018-05-17T07:18:37.235Z,1014.96
2018-05-17T07:19:37.008Z,1015.05
2018-05-17T07:20:36.986Z,1015.23
2018-05-17T07:21:36.959Z,1015.10
2018-05-17T07:22:36.943Z,1015.19
2018-05-17T07:23:36.916Z,1015.12
2018-05-17T07:24:36.896Z,1014.78
2018-05-17T07:25:36.875Z,1014.97
2018-05-17T07:26:36.854Z,1014.94
2018-05-17T07:27:36.833Z,1014.85
2018-05-17T07:28:36.811Z,1014.89
2018-05-17T07:29:36.791Z,1015.96
2018-05-17T07:30:36.772Z,1015.13
2018-05-17T07:31:36.755Z,1016.26
2018-05-17T07:32:36.727Z,1015.13
2018-05-17T07:33:36.706Z,1015.06
2018-05-17T07:34:36.688Z,1015.17
2018-05-17T07:35:36.666Z,1015.04
2018-05-17T07:36:36.644Z,1015.20
2018-05-17T07:37:36.628Z,1015.48
2018-05-17T07:38:36.657Z,1015.18
2018-05-17T07:39:36.581Z,1015.22
2018-05-17T07:40:36.563Z,1015.13
2018-05-17T07:41:36.547Z,1015.02
2018-05-17T07:42:36.528Z,1014.99
2018-05-17T07:43:36.511Z,1014.94
2018-05-17T07:44:36.488Z,1014.96
2018-05-17T07:45:36.460Z,1015.03
2018-05-17T07:46:36.442Z,1014.78
2018-05-17T07:47:36.419Z,1014.87
2018-05-17T07:48:36.399Z,1016.23
2018-05-17T07:49:36.383Z,1016.30
2018-05-17T07:50:36.363Z,1016.49
2018-05-17T07:51:36.347Z,1016.48
2018-05-17T07:52:36.326Z,1015.36
2018-05-17T07:53:36.298Z,1015.34
2018-05-17T07:54:36.278Z,1015.34
2018-05-17T07:55:36.286Z,1015.22
2018-05-17T07:56:36.238Z,1015.18
2018-05-17T07:57:36.219Z,1015.10
2018-05-17T07:58:36.213Z,1015.08
2018-05-17T07:59:36.194Z,1015.33
2018-05-17T08:00:36.191Z,1015.20
2018-05-17T08:01:36.140Z,1015.42
2018-05-17T08:02:36.131Z,1015.38
2018-05-17T08:03:36.101Z,1015.21
2018-05-17T08:04:36.083Z,1015.13
2018-05-17T08:05:36.062Z,1015.00
2018-05-17T08:06:36.045Z,1015.05
2018-05-17T08:07:36.024Z,1016.06
2018-05-17T08:08:36.054Z,1015.69
2018-05-17T08:09:35.989Z,1015.25
2018-05-17T08:10:35.963Z,1015.35
2018-05-17T08:11:35.943Z,1015.62
2018-05-17T08:12:35.923Z,1015.34
2018-05-17T08:13:35.909Z,1015.34
2018-05-17T08:14:35.884Z,1015.22
2018-05-17T08:15:35.868Z,1015.07
2018-05-17T08:16:35.862Z,1015.18
2018-05-17T08:17:35.831Z,1015.15
2018-05-17T08:18:35.810Z,1015.24
2018-05-17T08:19:35.791Z,1015.20
2018-05-17T08:20:35.768Z,1015.24
2018-05-17T08:21:35.749Z,1015.15
2018-05-17T08:22:35.735Z,1015.25
2018-05-17T08:23:35.707Z,1015.28
2018-05-17T08:24:35.691Z,1015.20
2018-05-17T08:25:35.674Z,1015.38
2018-05-17T08:26:35.650Z,1015.40
2018-05-17T08:27:35.630Z,1015.35
2018-05-17T08:28:35.620Z,1015.59
2018-05-17T08:29:35.610Z,1015.52
2018-05-17T08:30:35.580Z,1016.09
2018-05-17T08:31:35.549Z,1015.49
2018-05-17T08:32:35.531Z,1015.44
2018-05-17T08:33:35.509Z,1015.31
2018-05-17T08:34:35.500Z,1015.48
2018-05-17T08:35:35.468Z,1015.47
2018-05-17T08:36:35.631Z,1015.32
2018-05-17T08:37:35.433Z,1015.29
2018-05-17T08:38:35.415Z,1015.28
2018-05-17T08:39:35.407Z,1015.33
2018-05-17T08:40:35.368Z,1015.37
2018-05-17T08:41:35.348Z,1015.40
2018-05-17T08:42:35.433Z,1015.33
2018-05-17T08:43:35.306Z,1015.35
2018-05-17T08:44:35.289Z,1015.41
2018-05-17T08:45:35.314Z,1016.24
2018-05-17T08:46:35.250Z,1015.30
2018-05-17T08:47:35.225Z,1015.40
2018-05-17T08:48:35.204Z,1015.65
2018-05-17T08:49:35.222Z,1016.67
2018-05-17T08:50:35.166Z,1015.73
2018-05-17T08:51:35.152Z,1016.61
2018-05-17T08:52:35.344Z,1015.69
2018-05-17T08:53:35.111Z,1015.55
2018-05-17T08:54:35.136Z,1015.53
2018-05-17T08:55:35.070Z,1015.74
2018-05-17T08:56:35.051Z,1015.60
2018-05-17T08:57:35.028Z,1015.58
2018-05-17T08:58:35.010Z,1015.57
2018-05-17T08:59:34.989Z,1015.73
2018-05-17T09:00:34.974Z,1015.67
2018-05-17T09:01:34.951Z,1015.68
2018-05-17T09:02:34.932Z,1016.72
2018-05-17T09:03:34.912Z,1016.81
2018-05-17T09:04:34.893Z,1015.87
2018-05-17T09:05:34.874Z,1015.61
2018-05-17T09:06:34.855Z,1015.50
2018-05-17T09:07:34.840Z,1015.55
2018-05-17T09:08:34.821Z,1015.52
2018-05-17T09:09:34.804Z,1016.45
2018-05-17T09:10:34.779Z,1016.53
2018-05-17T09:11:34.760Z,1016.74
2018-05-17T09:12:34.748Z,1016.88
2018-05-17T09:13:34.965Z,1016.16
2018-05-17T09:14:34.708Z,1015.91
2018-05-17T09:15:34.689Z,1015.74
2018-05-17T09:16:34.669Z,1016.59
2018-05-17T09:17:34.652Z,1016.48
2018-05-17T09:18:34.646Z,1015.75
2018-05-17T09:19:34.628Z,1016.55
2018-05-17T09:20:34.897Z,1015.93
2018-05-17T09:21:34.825Z,1015.96
2018-05-17T09:22:34.764Z,1016.09
2018-05-17T09:23:34.551Z,1016.47
2018-05-17T09:24:34.526Z,1016.04
2018-05-17T09:25:34.714Z,1015.96
2018-05-17T09:26:34.492Z,1015.84
2018-05-17T09:27:34.475Z,1015.84
2018-05-17T09:28:34.457Z,1015.88
2018-05-17T09:29:34.454Z,1015.83
2018-05-17T09:30:34.445Z,1015.88
2018-05-17T09:31:34.414Z,1015.98
2018-05-17T09:32:34.389Z,1015.82
2018-05-17T09:33:34.369Z,1015.87
2018-05-17T09:34:34.352Z,1015.78
2018-05-17T09:35:34.363Z,1015.83
2018-05-17T09:36:34.321Z,1015.48
2018-05-17T09:37:34.305Z,1015.54
2018-05-17T09:38:34.482Z,1015.86
2018-05-17T09:39:34.466Z,1015.93
2018-05-17T09:40:34.243Z,1015.90
2018-05-17T09:41:34.246Z,1015.91
2018-05-17T09:42:34.207Z,1015.94
2018-05-17T09:43:34.187Z,1015.98
2018-05-17T09:44:34.170Z,1016.08
2018-05-17T09:45:34.150Z,1016.11
2018-05-17T09:46:34.137Z,1016.02
2018-05-17T09:47:34.144Z,1016.00
2018-05-17T09:48:34.098Z,1015.97
2018-05-17T09:49:34.076Z,1016.12
2018-05-17T09:50:34.058Z,1016.43
2018-05-17T09:51:34.044Z,1015.98
2018-05-17T09:52:34.023Z,1016.07
2018-05-17T09:53:34.003Z,1016.04
2018-05-17T09:54:33.993Z,1016.11
2018-05-17T09:55:33.964Z,1016.00
2018-05-17T09:56:34.020Z,1015.95
2018-05-17T09:57:33.970Z,1016.13
2018-05-17T09:58:33.909Z,1016.05
2018-05-17T09:59:33.890Z,1016.02
2018-05-17T10:00:33.871Z,1015.92
2018-05-17T10:01:33.863Z,1016.03
2018-05-17T10:02:33.856Z,1016.11
2018-05-17T10:03:33.814Z,1016.07
2018-05-17T10:04:33.801Z,1016.15
2018-05-17T10:05:33.806Z,1016.04
2018-05-17T10:06:33.764Z,1016.01
2018-05-17T10:07:33.740Z,1016.04
2018-05-17T10:08:33.723Z,1016.02
2018-05-17T10:09:33.708Z,1016.20
2018-05-17T10:10:33.686Z,1015.96
2018-05-17T10:11:33.667Z,1016.11
2018-05-17T10:12:33.653Z,1016.06
2018-05-17T10:13:33.632Z,1016.07
2018-05-17T10:14:33.666Z,1016.17
2018-05-17T10:15:33.633Z,1016.42
2018-05-17T10:16:33.588Z,1015.92
2018-05-17T10:17:33.558Z,1015.95
2018-05-17T10:18:33.542Z,1016.02
2018-05-17T10:19:33.521Z,1015.94
2018-05-17T10:20:33.508Z,1015.92
2018-05-17T10:21:33.489Z,1016.00
2018-05-17T10:22:33.471Z,1015.99
2018-05-17T10:23:33.452Z,1016.36
2018-05-17T10:24:33.469Z,1016.15
2018-05-17T10:25:33.414Z,1016.14
2018-05-17T10:26:33.394Z,1016.08
2018-05-17T10:27:33.419Z,1016.35
2018-05-17T10:28:33.356Z,1016.14
2018-05-17T10:29:33.448Z,1016.21
2018-05-17T10:30:33.321Z,1016.12
2018-05-17T10:31:33.302Z,1016.13
2018-05-17T10:32:33.292Z,1016.06
2018-05-17T10:33:33.272Z,1016.03
2018-05-17T10:34:33.249Z,1016.04
2018-05-17T10:35:33.230Z,1016.01
2018-05-17T10:36:33.224Z,1015.95
2018-05-17T10:37:33.215Z,1015.89
2018-05-17T10:38:33.177Z,1015.97
2018-05-17T10:39:33.184Z,1016.32
2018-05-17T10:40:33.204Z,1016.11
2018-05-17T10:41:33.131Z,1015.99
2018-05-17T10:42:33.103Z,1016.00
2018-05-17T10:43:33.111Z,1016.25
2018-05-17T10:44:33.070Z,1015.92
2018-05-17T10:45:33.058Z,1015.97
2018-05-17T10:46:33.105Z,1016.09
2018-05-17T10:47:33.012Z,1016.05
2018-05-17T10:48:32.993Z,1015.91
2018-05-17T10:49:32.978Z,1015.83
2018-05-17T10:50:32.959Z,1015.99
2018-05-17T10:51:32.944Z,1015.97
2018-05-17T10:52:32.996Z,1016.02
2018-05-17T10:53:32.906Z,1016.04
2018-05-17T10:54:32.937Z,1016.13
2018-05-17T10:55:32.866Z,1016.05
2018-05-17T10:56:32.851Z,1015.85
2018-05-17T10:57:32.903Z,1015.93
2018-05-17T10:58:32.816Z,1015.92
2018-05-17T10:59:32.796Z,1016.56
2018-05-17T11:00:32.775Z,1016.00
2018-05-17T11:01:32.758Z,1016.04
2018-05-17T11:02:32.755Z,1016.10
2018-05-17T11:03:32.721Z,1016.25
2018-05-17T11:04:32.736Z,1016.22
2018-05-17T11:05:32.772Z,1016.30
2018-05-17T11:06:32.670Z,1016.71
2018-05-17T11:07:32.666Z,1016.50
2018-05-17T11:08:32.651Z,1015.98
2018-05-17T11:09:32.616Z,1016.07
2018-05-17T11:10:32.615Z,1016.79
2018-05-17T11:11:32.582Z,1016.48
2018-05-17T11:12:32.588Z,1016.33
2018-05-17T11:13:32.578Z,1016.52
2018-05-17T11:14:32.734Z,1016.07
2018-05-17T11:15:32.517Z,1017.21
2018-05-17T11:16:32.701Z,1016.39
2018-05-17T11:17:32.488Z,1016.41
2018-05-17T11:18:32.466Z,1016.48
2018-05-17T11:19:32.488Z,1016.01
2018-05-17T11:20:32.434Z,1016.04
2018-05-17T11:21:32.504Z,1015.97
2018-05-17T11:22:32.405Z,1016.05
2018-05-17T11:23:32.401Z,1016.31
2018-05-17T11:24:32.596Z,1015.98
2018-05-17T11:25:32.553Z,1016.53
2018-05-17T11:26:32.335Z,1016.26
2018-05-17T11:27:32.335Z,1016.16
2018-05-17T11:28:32.304Z,1015.94
2018-05-17T11:29:32.289Z,1016.69
2018-05-17T11:30:32.279Z,1016.09
2018-05-17T11:31:32.249Z,1016.88
2018-05-17T11:32:32.527Z,1016.14
2018-05-17T11:33:32.216Z,1016.06
2018-05-17T11:34:32.201Z,1015.87
2018-05-17T11:35:32.205Z,1017.13
2018-05-17T11:36:32.163Z,1016.31
2018-05-17T11:37:32.146Z,1016.11
2018-05-17T11:38:32.218Z,1016.42
2018-05-17T11:39:32.126Z,1016.42
2018-05-17T11:40:32.104Z,1016.10
2018-05-17T11:41:32.280Z,1016.08
2018-05-17T11:42:32.075Z,1016.07
2018-05-17T11:43:32.057Z,1016.03
2018-05-17T11:44:32.032Z,1015.90
2018-05-17T11:45:32.014Z,1016.21
2018-05-17T11:46:32.008Z,1015.96
2018-05-17T11:47:31.978Z,1016.51
2018-05-17T11:48:31.958Z,1016.05
2018-05-17T11:49:31.947Z,1016.05
2018-05-17T11:50:32.219Z,1015.93
2018-05-17T11:51:32.106Z,1016.02
2018-05-17T11:52:31.902Z,1016.03
2018-05-17T11:53:31.870Z,1015.88
2018-05-17T11:54:31.856Z,1015.90
2018-05-17T11:55:31.833Z,1015.98
2018-05-17T11:56:31.818Z,1016.09
2018-05-17T11:57:31.801Z,1016.03
2018-05-17T11:58:31.779Z,1016.14
2018-05-17T11:59:31.762Z,1015.93
2018-05-17T12:00:31.742Z,1015.91
2018-05-17T12:01:32.020Z,1015.79
2018-05-17T12:02:31.984Z,1015.74
2018-05-17T12:03:32.905Z,1015.88
2018-05-17T12:04:31.683Z,1015.92
2018-05-17T12:05:31.853Z,1015.94